TAF Text Data
IDs:
Format:
Raw Decoded Include METAR

Data at: 1257 UTC 17 Sep 2019

KMSL 171120Z 1712/1812 36003KT P6SM SKC
  FM171700 33006KT P6SM SCT050
  FM180200 02003KT P6SM SKC